NEW HOGAN LAKE (NHG)

Elevation: 554' · CALAVERAS R basin · Operator: US Army Corps of Engineers

Provisional data, subject to change.
Query executed Sunday at 1:48:29   clock

Select a sensor type for a plot of data.
Note: Reservoir Flows are daily averages.

Earlier

Date RES ELE    STORAGE    RES CHG    TOC STO    ABV TOC    OUTFLOW    INFLOW    FNF    PPT INC    TEMP MN    TEMP MX   
 FEET   AF   AF   AF   AF   CFS   CFS   CFS   INCHES   DEG F   DEG F  
07/29/2016 648.22 106150 -438 317100 -210950 228 37 37 0.00 23 40
07/30/2016 647.99 105620 -530 317100 -211480 254 16 16 0.00 23 39
07/31/2016 647.79 105160 -460 317100 -211940 234 32 32 0.00 22 36
08/01/2016 647.61 104748 -412 317100 -212352 208 27 27 0.00 16 34
08/02/2016 647.44 104359 -- 317100 -- 203 33 33 0.00 17 35
08/03/2016 647.28 103994 -365 317100 -213106 194 39 39 0.00 18 37
08/04/2016 647.11 103607 -387 317100 -213493 178 8 8 0.00 16 32
08/05/2016 646.91 103152 -455 317100 -213948 228 21 21 0.00 11 31
08/06/2016 646.70 102676 -476 317100 -214424 242 28 28 0.00 14 34
08/07/2016 646.51 102247 -429 317100 -214853 230 38 38 0.00 14 33
08/08/2016 646.34 101863 -384 317100 -215237 200 33 33 0.00 15 34
08/09/2016 646.20 101548 -315 317100 -215552 173 39 39 0.01 15 35
08/10/2016 646.03 101166 -382 317100 -215934 179 12 12 0.00 17 34
08/11/2016 645.84 100740 -426 317100 -216360 220 29 29 0.00 16 35
08/12/2016 645.64 100293 -447 317100 -216807 241 41 41 0.00 17 36
08/13/2016 645.43 99825 -468 317100 -217275 241 33 33 0.00 18 38
08/14/2016 645.25 99424 -401 317100 -217676 223 50 50 0.00 19 38
08/15/2016 645.05 98980 -444 317100 -218120 216 18 18 0.00 20 35
08/16/2016 644.87 98582 -398 317100 -218518 224 48 48 0.00 18 37
08/17/2016 644.69 98184 -398 317100 -218916 209 34 34 0.00 21 38
08/18/2016 644.50 97765 -419 317100 -219335 224 37 37 0.00 21 36
08/19/2016 644.26 97238 -527 317100 -219862 264 22 22 0.00 21 35
08/20/2016 644.03 96734 -504 317100 -220366 265 37 37 0.00 20 34
08/21/2016 643.81 96253 -481 317100 -220847 248 28 28 0.00 17 34
08/22/2016 643.63 95861 -392 317100 -221239 219 42 43 0.00 18 32
08/23/2016 643.43 95426 -435 317100 -221674 223 25 -- 0.00 15 33
08/24/2016 643.20 94927 -499 317100 -222173 260 30 30 0.00 15 33
08/25/2016 642.96 94409 -518 317100 -222691 272 33 33 0.00 16 33
08/26/2016 642.71 93870 -539 317100 -223230 287 34 -- 0.00 13 30
08/27/2016 642.47 93355 -- 317100 -- 281 40 -- 0.00 13 29
08/28/2016 -- -- -- -- -- -- -- -- -- -- --

Later | Latest

Warning! This data is preliminary and subject to revision.

Show NHG Map | Plot NHG Data | 1 Month NHG Data | Real-Time NHG Data | NHG Info